x

Boston 16 Nm East Of Boston, Ma (44013) Wave Buoy

11:50 - Sun 24th May 2015 All times are EDT. -4 hours from GMT.

  • Sig Wave height 1.0ft
  • Swell Direction
  • Peak Period 3s
  • Average Period 3s
  • Wind
    13mph
  • Sea Temp 52°f
  • Aire Temp 62°f
  • Sea Pressure 1023.5mb
  • Boston 16 Nm East Of Boston, Ma
  • Boston 16 Nm East Of Boston, Ma

More Historic Weather Station data

Upgrade to MSW Pro to gain access to the past 30 days of data for over 8000 Wavebouys and Weather Stations around the globe.

Join Pro

Comparision Forecast

View Surf forecast
   
dom 05/24 11:50 1ft 3s 3s 13
mph
1023.5mb 52f 62f
10:50 1.3ft 3s 3s 16 18 mph 1023.8mb 52f 61f
9:50 1.3ft 3s 3s 13 16 mph 1024.4mb 52f 58f
8:50 1.6ft 3s 3s 13 16 mph 1024.6mb 52f 56f
7:50 2ft 3s 3s 13 16 mph 1024.5mb 52f 54f
6:50 2ft 3s 3s 18 20 mph 1024.4mb 52f 53f
5:50 2ft 3s 3s 16 20 mph 1024.5mb 52f 52f
4:50 1.6ft 3s 3s 16 18 mph 1024.4mb 52f 52f
3:50 2ft 3s 3s 18 22 mph 1024.6mb 52f 52f
2:50 2ft 3s 3s 18 20 mph 1024.9mb 52f 51f
1:50 1.6ft 3s 3s 16 20 mph 1025.2mb 53f 52f
12:50 1.6ft 3s 3s 18 20 mph 1025.5mb 53f 53f
sáb 05/23 11:50 1ft 8s 3s 16 20 mph 1025.6mb 53f 53f
10:50 1ft 8s 4s 11 16 mph 1025.7mb 53f 54f
9:50 1ft 8s 3s 9 11 mph 1025.5mb 53f 56f
8:50 1ft 8s 4s 9
mph
1025.5mb 53f 57f
7:50 1ft 9s 4s 11 13 mph 1025mb 53f 57f
6:50 1ft 9s 4s 9
mph
1025mb 54f 58f
5:50 1ft 8s 4s 4 7 mph 1024.8mb 54f 56f
4:50 1.3ft 8s 4s 7 9 mph 1025mb 53f 57f
3:50 1.3ft 3s 3s 11 13 mph 1025.6mb 53f 56f
2:50 1.6ft 3s 3s 13 16 mph 1026mb 53f 54f
1:50 1.6ft 3s 3s 11 16 mph 1026.5mb 52f 53f
12:50 2.5ft 3s 4s 13 18 mph 1026.8mb 52f 51f
11:50 2.5ft 3s 4s 16 18 mph 1026.8mb 52f 49f
10:50 2.5ft 4s 4s 18 22 mph 1026.9mb 52f 48f
9:50 2.5ft 4s 4s 16 20 mph 1026.7mb 52f 46f
8:50 2.5ft 4s 4s 20 27 mph 1026.3mb 52f 46f
7:50 2.5ft 3s 4s 20 27 mph 1025.8mb 52f 46f
6:50 3ft 4s 4s 20 27 mph 1025.1mb 52f 46f
5:50 2.5ft 3s 4s 20 27 mph 1023.6mb 52f 46f
4:50 3ft 4s 3s 20 25 mph 1021.9mb 52f 47f
3:50 3ft 4s 3s 22 27 mph 1020.5mb 53f 49f
2:50 2.5ft 3s 3s 27 31 mph 1019.5mb 53f 50f
1:50 1.3ft 3s 3s 22 25 mph 1018.5mb 53f 53f
12:50 1.6ft 3s 3s 11 13 mph 1017.9mb 53f 55f
vie 05/22 11:50 1.6ft 3s 3s 16 20 mph 1017.3mb 53f 56f
10:50 1.6ft 3s 3s 13 18 mph 1016.7mb 54f 58f
9:50 2ft 3s 3s 16 18 mph 1016mb 54f 59f
8:50 2ft 3s 3s 16 20 mph 1014.4mb 54f 59f
7:50 2ft 3s 3s 18 20 mph 1012.7mb 54f 61f
6:50 2ft 3s 3s 16 20 mph 1011.2mb 54f 62f
5:50 2ft 3s 3s 13 16 mph 1010.4mb 54f 62f
4:50 1.3ft 3s 3s 13 18 mph 1009.4mb 54f 62f
3:50 1.3ft 3s 3s 13 20 mph 1008.9mb 54f 58f
2:50 1.3ft 10s 4s 16 20 mph 1008.4mb 55f 57f
1:50 1.3ft 4s 4s 9 11 mph 1008.6mb 55f 57f
12:50 1.3ft 9s 5s 9
mph
1009.2mb 55f 56f
11:50 1.3ft 9s 4s 7
mph
1009.8mb 55f 56f
10:50 1.3ft 9s 4s 4 7 mph 1009.9mb 54f 55f
9:50 1.3ft 9s 4s 4 7 mph 1010mb 53f 53f
8:50 1.3ft 8s 4s 4 7 mph 1010.3mb 53f 52f
7:50 1.6ft 4s 4s 7
mph
1010.2mb 53f 52f
6:50 1.6ft 4s 4s 9 11 mph 1010.1mb 53f 51f
5:50 1.6ft 3s 4s 13 16 mph 1010.1mb 53f 51f
4:50 1.3ft 10s 3s 13 18 mph 1009.6mb 53f 52f
3:50 1.3ft 10s 3s 13 16 mph 1009.7mb 53f 52f
2:50 1.6ft 3s 3s 11 13 mph 1009.8mb 53f 53f
1:50 1.6ft 3s 3s 13 16 mph 1010.2mb 53f 53f
12:50 2.5ft 3s 3s 13 16 mph 1010.6mb 53f 54f
jue 05/21 11:50 2.5ft 3s 3s 18 22 mph 1011.1mb 53f 54f
10:50 2.5ft 3s 3s 18 22 mph 1012.1mb 53f 54f
9:50 2ft 3s 3s 16 20 mph 1012.3mb 53f 55f
8:50 2ft 4s 3s 16 18 mph 1011.8mb 53f 56f
7:50 2.5ft 4s 4s 18 20 mph 1011.4mb 53f 57f
6:50 2.5ft 4s 4s 16 18 mph 1011mb 54f 58f
5:50 1.6ft 3s 3s 11 13 mph 1011.2mb 54f 58f
4:50 1.3ft 3s 3s 9
mph
1011.7mb 54f 58f
3:50 1.3ft 3s 4s 9 11 mph 1012mb 54f 57f
2:50 1.3ft 8s 4s 11
mph
1012.5mb 54f 55f
1:50 1ft 8s 5s 11
mph
1013.3mb 54f 54f
12:50 1ft 8s 6s 9 11 mph 1013.7mb 54f 54f
11:50 1ft 8s 6s 7 9 mph 1014.1mb 54f 54f
10:50 1ft 8s 6s 2 4 mph 1015mb 53f 53f
9:50 1ft 8s 5s 7
mph
1015.5mb 53f 52f
8:50 1ft 8s 4s 9
mph
1015.4mb 53f 51f
7:50 1.3ft 8s 4s 11 13 mph 1015.1mb 52f 51f
6:50 1.3ft 8s 4s 11 13 mph 1014.7mb 53f 51f
5:50 1.3ft 9s 4s 11 13 mph 1014.2mb 52f 51f
4:50 1.6ft 9s 4s 11 13 mph 1013.6mb 52f 51f
3:50 1.6ft 9s 4s 13 16 mph 1013.6mb 53f 51f
2:50 1.6ft 9s 4s 11 13 mph 1013.1mb 53f 52f
1:50 1.6ft 8s 4s 11 13 mph 1012.5mb 53f 53f
12:50 1.3ft 8s 4s 11 16 mph 1012.8mb 53f 53f
mié 05/20 11:50 1.6ft 9s 4s 11 16 mph 1012.6mb 52f 53f
10:50 2.5ft 8s 4s 13 16 mph 1012.2mb 52f 53f
9:50 2.5ft 4s 4s 11 13 mph 1012.5mb 53f 53f
8:50 3ft 4s 4s 18 25 mph 1011.6mb 53f 54f
7:50 3ft 4s 4s 18 20 mph 1010.4mb 53f 55f
6:50 3.5ft 4s 4s 25 29 mph 1009.4mb 53f 56f
5:50 3ft 8s 4s 20 25 mph 1009.1mb 53f 56f